createdAt,value
2023-04-02T00:02:22.367Z,8.18
2023-04-02T00:05:19.670Z,8.19
2023-04-02T00:07:50.479Z,8.20
2023-04-02T00:10:34.954Z,8.21
2023-04-02T00:13:11.388Z,8.23
2023-04-02T00:15:41.643Z,8.26
2023-04-02T00:18:19.447Z,8.29
2023-04-02T00:20:53.151Z,8.33
2023-04-02T00:23:21.030Z,8.36
2023-04-02T00:25:48.863Z,8.39
2023-04-02T00:28:22.421Z,8.43
2023-04-02T00:30:58.303Z,8.47
2023-04-02T00:33:30.419Z,8.51
2023-04-02T00:35:58.610Z,8.53
2023-04-02T00:38:30.308Z,8.55
2023-04-02T00:41:07.761Z,8.56
2023-04-02T00:43:38.521Z,8.58
2023-04-02T00:46:15.467Z,8.59
2023-04-02T00:48:46.945Z,8.61
2023-04-02T00:51:19.778Z,8.61
2023-04-02T00:53:49.506Z,8.63
2023-04-02T00:56:29.195Z,8.63
2023-04-02T00:58:58.369Z,8.64
2023-04-02T01:01:29.852Z,8.64
2023-04-02T01:03:59.927Z,8.64
2023-04-02T01:06:37.372Z,8.63
2023-04-02T01:09:37.864Z,8.63
2023-04-02T01:12:31.949Z,8.61
2023-04-02T01:15:14.982Z,8.60
2023-04-02T01:18:07.740Z,8.58
2023-04-02T01:20:47.875Z,8.59
2023-04-02T01:23:29.449Z,8.59
2023-04-02T01:26:17.570Z,8.57
2023-04-02T01:28:57.642Z,8.56
2023-04-02T01:31:27.537Z,8.53
2023-04-02T01:33:56.476Z,8.52
2023-04-02T01:36:52.121Z,8.51
2023-04-02T01:39:39.978Z,8.49
2023-04-02T01:42:13.726Z,8.48
2023-04-02T01:44:52.305Z,8.46
2023-04-02T01:47:29.068Z,8.43
2023-04-02T01:50:01.553Z,8.42
2023-04-02T01:52:41.228Z,8.40
2023-04-02T01:55:13.256Z,8.39
2023-04-02T01:57:44.969Z,8.38
2023-04-02T02:00:17.622Z,8.37
2023-04-02T02:02:49.774Z,8.36
2023-04-02T02:05:23.073Z,8.37
2023-04-02T02:07:52.418Z,8.37
2023-04-02T02:10:39.009Z,8.39
2023-04-02T02:13:07.470Z,8.40
2023-04-02T02:15:36.576Z,8.42
2023-04-02T02:18:07.904Z,8.42
2023-04-02T02:20:36.368Z,8.42
2023-04-02T02:23:05.643Z,8.42
2023-04-02T02:25:36.464Z,8.42
2023-04-02T02:28:26.260Z,8.40
2023-04-02T02:31:01.404Z,8.39
2023-04-02T02:33:37.300Z,8.38
2023-04-02T02:36:14.305Z,8.37
2023-04-02T02:39:05.120Z,8.36
2023-04-02T02:41:45.246Z,8.36
2023-04-02T02:44:23.851Z,8.35
2023-04-02T02:47:00.327Z,8.36
2023-04-02T02:49:36.207Z,8.36
2023-04-02T02:52:16.351Z,8.36
2023-04-02T02:54:49.887Z,8.35
2023-04-02T02:57:26.290Z,8.34
2023-04-02T02:59:57.715Z,8.33
2023-04-02T03:02:27.676Z,8.31
2023-04-02T03:04:56.628Z,8.29
2023-04-02T03:07:27.556Z,8.29
2023-04-02T03:10:15.373Z,8.29
2023-04-02T03:12:51.756Z,8.28
2023-04-02T03:15:59.654Z,8.26
2023-04-02T03:18:30.520Z,8.28
2023-04-02T03:21:06.910Z,8.29
2023-04-02T03:23:42.835Z,8.29
2023-04-02T03:26:22.887Z,8.29
2023-04-02T03:28:59.688Z,8.29
2023-04-02T03:32:00.758Z,8.28
2023-04-02T03:34:33.052Z,8.28
2023-04-02T03:37:22.788Z,8.28
2023-04-02T03:40:28.254Z,8.29
2023-04-02T03:43:24.245Z,8.28
2023-04-02T03:45:59.464Z,8.27
2023-04-02T03:48:37.291Z,8.25
2023-04-02T03:51:17.249Z,8.23
2023-04-02T03:53:46.492Z,8.24
2023-04-02T03:56:41.457Z,8.23
2023-04-02T03:59:27.839Z,8.24
2023-04-02T04:02:19.519Z,8.22
2023-04-02T04:04:50.490Z,8.23
2023-04-02T04:07:35.841Z,8.23
2023-04-02T04:10:06.519Z,8.21
2023-04-02T04:12:43.649Z,8.20
2023-04-02T04:15:37.688Z,8.19
2023-04-02T04:18:34.944Z,8.17
2023-04-02T04:21:31.414Z,8.15
2023-04-02T04:24:07.992Z,8.14
2023-04-02T04:26:39.690Z,8.14
2023-04-02T04:29:33.383Z,8.14
2023-04-02T04:32:34.116Z,8.16
2023-04-02T04:35:17.587Z,8.15
2023-04-02T04:37:58.808Z,8.12
2023-04-02T04:40:31.389Z,8.08
2023-04-02T04:43:06.100Z,8.03
2023-04-02T04:45:46.114Z,7.98
2023-04-02T04:48:26.825Z,7.96
2023-04-02T04:51:06.096Z,7.95
2023-04-02T04:53:41.093Z,7.97
2023-04-02T04:56:18.634Z,7.98
2023-04-02T04:58:59.532Z,7.99
2023-04-02T05:01:34.562Z,8.01
2023-04-02T05:04:26.991Z,8.03
2023-04-02T05:07:06.021Z,8.05
2023-04-02T05:09:40.126Z,8.08
2023-04-02T05:12:26.612Z,8.10
2023-04-02T05:15:00.904Z,8.14
2023-04-02T05:17:36.177Z,8.16
2023-04-02T05:20:16.560Z,8.18
2023-04-02T05:22:56.497Z,8.19
2023-04-02T05:25:30.396Z,8.22
2023-04-02T05:28:16.209Z,8.25
2023-04-02T05:30:46.829Z,8.28
2023-04-02T05:33:27.866Z,8.34
2023-04-02T05:36:07.467Z,8.41
2023-04-02T05:38:37.925Z,8.48
2023-04-02T05:41:27.041Z,8.54
2023-04-02T05:44:00.009Z,8.61
2023-04-02T05:46:33.958Z,8.68
2023-04-02T05:49:07.212Z,8.75
2023-04-02T05:51:49.495Z,8.79
2023-04-02T05:54:29.361Z,8.86
2023-04-02T05:57:08.013Z,8.92
2023-04-02T05:59:44.811Z,8.98
2023-04-02T06:02:36.695Z,9.05
2023-04-02T06:05:19.126Z,9.11
2023-04-02T06:07:55.557Z,9.15
2023-04-02T06:10:29.446Z,9.19
2023-04-02T06:13:04.478Z,9.24
2023-04-02T06:15:35.403Z,9.31
2023-04-02T06:18:14.194Z,9.38
2023-04-02T06:20:41.976Z,9.45
2023-04-02T06:23:18.103Z,9.52
2023-04-02T06:26:09.941Z,9.58
2023-04-02T06:28:47.090Z,9.64
2023-04-02T06:31:20.899Z,9.72
2023-04-02T06:33:52.386Z,9.77
2023-04-02T06:36:20.917Z,9.81
2023-04-02T06:38:50.958Z,9.86
2023-04-02T06:41:23.987Z,9.92
2023-04-02T06:44:00.504Z,9.98
2023-04-02T06:46:31.487Z,10.03
2023-04-02T06:49:09.447Z,10.07
2023-04-02T06:51:40.487Z,10.13
2023-04-02T06:54:15.134Z,10.21
2023-04-02T06:56:51.658Z,10.25
2023-04-02T06:59:20.110Z,10.30
2023-04-02T07:02:33.212Z,10.34
2023-04-02T07:05:09.431Z,10.40
2023-04-02T07:07:37.377Z,10.47
2023-04-02T07:10:07.035Z,10.54
2023-04-02T07:12:35.046Z,10.62
2023-04-02T07:15:03.938Z,10.68
2023-04-02T07:17:32.090Z,10.74
2023-04-02T07:20:00.140Z,10.82
2023-04-02T07:22:28.116Z,10.88
2023-04-02T07:24:56.347Z,10.96
2023-04-02T07:27:24.355Z,11.07
2023-04-02T07:29:52.258Z,11.17
2023-04-02T07:32:20.044Z,11.25
2023-04-02T07:34:49.022Z,11.38
2023-04-02T07:37:17.155Z,11.47
2023-04-02T07:39:45.036Z,11.50
2023-04-02T07:42:12.924Z,11.49
2023-04-02T07:44:40.822Z,11.50
2023-04-02T07:47:10.715Z,11.50
2023-04-02T07:49:38.555Z,11.54
2023-04-02T07:52:06.920Z,11.58
2023-04-02T07:54:35.942Z,11.67
2023-04-02T07:57:04.065Z,11.73
2023-04-02T07:59:32.896Z,11.74
2023-04-02T08:02:01.039Z,11.74
2023-04-02T08:04:28.979Z,11.76
2023-04-02T08:06:56.875Z,11.77
2023-04-02T08:09:24.697Z,11.76
2023-04-02T08:11:52.625Z,11.75
2023-04-02T08:14:20.463Z,11.78
2023-04-02T08:16:55.207Z,11.81
2023-04-02T08:19:24.362Z,11.86
2023-04-02T08:21:53.168Z,11.92
2023-04-02T08:24:22.018Z,11.94
2023-04-02T08:26:51.385Z,11.94
2023-04-02T08:29:19.982Z,11.90
2023-04-02T08:31:48.259Z,11.85
2023-04-02T08:34:16.338Z,11.80
2023-04-02T08:36:45.586Z,11.76
2023-04-02T08:39:14.073Z,11.74
2023-04-02T08:42:03.266Z,11.75
2023-04-02T08:44:58.086Z,11.78
2023-04-02T08:47:29.933Z,11.80
2023-04-02T08:50:01.809Z,11.80
2023-04-02T08:52:36.759Z,11.80
2023-04-02T08:55:33.637Z,11.82
2023-04-02T08:58:21.978Z,11.87
2023-04-02T09:00:54.272Z,11.93
2023-04-02T09:03:38.770Z,11.96
2023-04-02T09:06:10.066Z,11.99
2023-04-02T09:08:39.674Z,12.04
2023-04-02T09:11:41.749Z,12.08
2023-04-02T09:14:21.137Z,12.14
2023-04-02T09:17:00.735Z,12.20
2023-04-02T09:19:39.046Z,12.25
2023-04-02T09:22:20.560Z,12.29
2023-04-02T09:24:59.994Z,12.28
2023-04-02T09:27:31.517Z,12.31
2023-04-02T09:30:06.741Z,12.28
2023-04-02T09:32:49.598Z,12.25
2023-04-02T09:35:26.581Z,12.26
2023-04-02T09:38:10.396Z,12.26
2023-04-02T09:40:50.672Z,12.25
2023-04-02T09:43:21.818Z,12.26
2023-04-02T09:46:23.519Z,12.27
2023-04-02T09:49:03.811Z,12.33
2023-04-02T09:51:34.735Z,12.37
2023-04-02T09:54:02.865Z,12.44
2023-04-02T09:56:32.864Z,12.50
2023-04-02T09:59:12.707Z,12.54
2023-04-02T10:01:57.420Z,12.53
2023-04-02T10:04:39.326Z,12.52
2023-04-02T10:07:07.308Z,12.54
2023-04-02T10:09:38.591Z,12.58
2023-04-02T10:12:13.527Z,12.63
2023-04-02T10:14:46.307Z,12.68
2023-04-02T10:17:27.604Z,12.74
2023-04-02T10:20:02.604Z,12.83
2023-04-02T10:22:30.921Z,12.93
2023-04-02T10:24:59.569Z,13.02
2023-04-02T10:27:37.785Z,13.12
2023-04-02T10:30:22.429Z,13.20
2023-04-02T10:33:03.546Z,13.21
2023-04-02T10:35:56.409Z,13.14
2023-04-02T10:38:35.092Z,13.11
2023-04-02T10:41:15.523Z,13.09
2023-04-02T10:43:46.620Z,13.05
2023-04-02T10:46:23.654Z,12.97
2023-04-02T10:49:02.375Z,12.95
2023-04-02T10:51:30.571Z,12.97
2023-04-02T10:54:22.797Z,12.99
2023-04-02T10:56:55.441Z,13.02
2023-04-02T10:59:35.568Z,13.06
2023-04-02T11:02:16.807Z,13.10
2023-04-02T11:04:46.740Z,13.14
2023-04-02T11:07:20.087Z,13.19
2023-04-02T11:09:52.424Z,13.29
2023-04-02T11:12:46.622Z,13.37
2023-04-02T11:15:19.122Z,13.45
2023-04-02T11:17:48.205Z,13.52
2023-04-02T11:21:07.796Z,13.59
2023-04-02T11:23:57.145Z,13.62
2023-04-02T11:26:39.207Z,13.72
2023-04-02T11:29:15.762Z,13.79
2023-04-02T11:31:45.946Z,13.81
2023-04-02T11:34:56.712Z,13.86
2023-04-02T11:37:45.598Z,13.87
2023-04-02T11:40:16.518Z,13.88
2023-04-02T11:42:45.423Z,13.90
2023-04-02T11:45:28.579Z,13.90
2023-04-02T11:48:23.055Z,13.83
2023-04-02T11:50:51.128Z,13.68
2023-04-02T11:53:35.857Z,13.55
2023-04-02T11:56:21.469Z,13.47
2023-04-02T11:59:07.014Z,13.40
2023-04-02T12:01:55.953Z,13.30
2023-04-02T12:05:04.468Z,13.25
2023-04-02T12:07:52.407Z,13.22
2023-04-02T12:10:23.268Z,13.24
2023-04-02T12:12:51.845Z,13.29
2023-04-02T12:15:41.379Z,13.33
2023-04-02T12:18:24.345Z,13.32
2023-04-02T12:20:56.806Z,13.30
2023-04-02T12:23:31.413Z,13.32
2023-04-02T12:26:07.487Z,13.35
2023-04-02T12:28:38.112Z,13.39
2023-04-02T12:31:09.163Z,13.41
2023-04-02T12:33:38.805Z,13.42
2023-04-02T12:36:20.195Z,13.43
2023-04-02T12:38:56.808Z,13.47
2023-04-02T12:41:33.422Z,13.47
2023-04-02T12:44:02.266Z,13.48
2023-04-02T12:46:32.898Z,13.39
2023-04-02T12:49:06.746Z,13.33
2023-04-02T12:51:37.917Z,13.30
2023-04-02T12:54:06.212Z,13.28
2023-04-02T12:56:34.308Z,13.24
2023-04-02T12:59:02.233Z,13.23
2023-04-02T13:01:32.068Z,13.23
2023-04-02T13:04:04.571Z,13.21
2023-04-02T13:06:34.188Z,13.20
2023-04-02T13:09:05.107Z,13.23
2023-04-02T13:11:42.428Z,13.22
2023-04-02T13:14:19.901Z,13.17
2023-04-02T13:16:47.957Z,13.16
2023-04-02T13:19:31.540Z,13.16
2023-04-02T13:22:01.872Z,13.20
2023-04-02T13:24:32.735Z,13.22
2023-04-02T13:27:03.124Z,13.17
2023-04-02T13:29:36.009Z,13.14
2023-04-02T13:32:06.835Z,13.15
2023-04-02T13:34:34.721Z,13.15
2023-04-02T13:37:02.609Z,13.17
2023-04-02T13:39:30.596Z,13.18
2023-04-02T13:42:01.762Z,13.19
2023-04-02T13:44:32.258Z,13.21
2023-04-02T13:47:00.767Z,13.20
2023-04-02T13:49:29.151Z,13.18
2023-04-02T13:52:04.364Z,13.13
2023-04-02T13:54:46.646Z,13.09
2023-04-02T13:57:15.203Z,13.08
2023-04-02T13:59:43.188Z,13.05
2023-04-02T14:02:29.344Z,13.00
2023-04-02T14:05:27.230Z,12.96
2023-04-02T14:08:13.295Z,12.94
2023-04-02T14:11:01.036Z,12.92
2023-04-02T14:13:37.190Z,12.89
2023-04-02T14:16:31.429Z,12.88
2023-04-02T14:19:10.236Z,12.92
2023-04-02T14:21:56.295Z,12.92
2023-04-02T14:24:39.061Z,12.92
2023-04-02T14:27:28.733Z,12.94
2023-04-02T14:30:39.642Z,12.93
2023-04-02T14:33:23.931Z,12.89
2023-04-02T14:35:55.099Z,12.86
2023-04-02T14:38:50.784Z,12.79
2023-04-02T14:41:50.152Z,12.72
2023-04-02T14:44:23.510Z,12.71
2023-04-02T14:46:59.227Z,12.73
2023-04-02T14:49:33.298Z,12.76
2023-04-02T14:52:07.239Z,12.78
2023-04-02T14:54:38.675Z,12.80
2023-04-02T14:57:18.919Z,12.82
2023-04-02T14:59:58.876Z,12.83
2023-04-02T15:02:46.278Z,12.83
2023-04-02T15:05:20.351Z,12.82
2023-04-02T15:08:15.589Z,12.80
2023-04-02T15:11:02.148Z,12.77
2023-04-02T15:13:54.542Z,12.74
2023-04-02T15:16:27.284Z,12.74
2023-04-02T15:18:57.434Z,12.74
2023-04-02T15:21:55.761Z,12.74
2023-04-02T15:24:40.346Z,12.72
2023-04-02T15:27:25.226Z,12.70
2023-04-02T15:30:09.035Z,12.67
2023-04-02T15:32:39.931Z,12.62
2023-04-02T15:35:32.493Z,12.57
2023-04-02T15:38:35.637Z,12.50
2023-04-02T15:41:23.533Z,12.45
2023-04-02T15:44:03.542Z,12.39
2023-04-02T15:46:46.800Z,12.33
2023-04-02T15:49:27.347Z,12.29
2023-04-02T15:52:26.782Z,12.23
2023-04-02T15:55:13.022Z,12.16
2023-04-02T15:58:19.243Z,12.11
2023-04-02T16:00:52.114Z,12.05
2023-04-02T16:03:38.775Z,12.00
2023-04-02T16:06:27.232Z,11.98
2023-04-02T16:09:20.221Z,11.96
2023-04-02T16:11:56.009Z,11.94
2023-04-02T16:14:26.353Z,11.91
2023-04-02T16:17:10.875Z,11.88
2023-04-02T16:19:51.258Z,11.85
2023-04-02T16:22:29.098Z,11.82
2023-04-02T16:25:20.706Z,11.79
2023-04-02T16:28:03.435Z,11.75
2023-04-02T16:30:56.789Z,11.72
2023-04-02T16:33:37.001Z,11.68
2023-04-02T16:36:27.041Z,11.62
2023-04-02T16:39:13.920Z,11.54
2023-04-02T16:41:52.143Z,11.47
2023-04-02T16:44:57.837Z,11.42
2023-04-02T16:47:59.739Z,11.37
2023-04-02T16:50:33.454Z,11.33
2023-04-02T16:53:21.230Z,11.30
2023-04-02T16:56:03.222Z,11.27
2023-04-02T16:58:31.042Z,11.24
2023-04-02T17:01:20.543Z,11.20
2023-04-02T17:04:16.012Z,11.13
2023-04-02T17:06:55.920Z,11.05
2023-04-02T17:09:26.708Z,10.97
2023-04-02T17:12:41.343Z,10.89
2023-04-02T17:17:58.536Z,10.73
2023-04-02T17:20:26.544Z,10.66
2023-04-02T17:22:56.111Z,10.62
2023-04-02T17:25:31.676Z,10.57
2023-04-02T17:28:01.702Z,10.54
2023-04-02T17:30:43.571Z,10.51
2023-04-02T17:33:14.328Z,10.45
2023-04-02T17:35:53.569Z,10.40
2023-04-02T17:38:27.348Z,10.35
2023-04-02T17:41:02.895Z,10.31
2023-04-02T17:43:33.761Z,10.25
2023-04-02T17:46:18.129Z,10.20
2023-04-02T17:48:48.447Z,10.16
2023-04-02T17:51:31.776Z,10.13
2023-04-02T17:54:27.834Z,10.09
2023-04-02T17:56:58.673Z,10.04
2023-04-02T17:59:44.194Z,10.01
2023-04-02T18:02:28.305Z,9.97
2023-04-02T18:05:13.090Z,9.90
2023-04-02T18:07:46.998Z,9.81
2023-04-02T18:10:30.637Z,9.68
2023-04-02T18:13:07.517Z,9.57
2023-04-02T18:15:55.490Z,9.45
2023-04-02T18:18:41.974Z,9.32
2023-04-02T18:21:25.700Z,9.21
2023-04-02T18:23:59.704Z,9.12
2023-04-02T18:26:42.862Z,9.05
2023-04-02T18:29:16.804Z,9.01
2023-04-02T18:31:47.584Z,9.01
2023-04-02T18:34:30.718Z,8.99
2023-04-02T18:37:22.621Z,8.97
2023-04-02T18:40:30.732Z,8.94
2023-04-02T18:43:17.229Z,8.91
2023-04-02T18:46:09.395Z,8.90
2023-04-02T18:48:59.044Z,8.91
2023-04-02T18:51:32.169Z,8.92
2023-04-02T18:54:08.968Z,8.94
2023-04-02T18:56:40.629Z,8.95
2023-04-02T18:59:35.996Z,8.96
2023-04-02T19:02:38.951Z,9.00
2023-04-02T19:05:20.612Z,9.01
2023-04-02T19:07:52.593Z,9.01
2023-04-02T19:10:31.282Z,9.02
2023-04-02T19:12:59.250Z,9.03
2023-04-02T19:15:43.422Z,9.02
2023-04-02T19:18:28.907Z,9.00
2023-04-02T19:21:04.525Z,9.00
2023-04-02T19:23:50.667Z,8.99
2023-04-02T19:26:24.145Z,8.98
2023-04-02T19:29:19.746Z,8.95
2023-04-02T19:32:05.090Z,8.89
2023-04-02T19:34:57.336Z,8.84
2023-04-02T19:37:36.790Z,8.80
2023-04-02T19:40:11.807Z,8.76
2023-04-02T19:42:48.345Z,8.73
2023-04-02T19:45:22.384Z,8.71
2023-04-02T19:47:50.748Z,8.71
2023-04-02T19:50:18.662Z,8.72
2023-04-02T19:52:54.654Z,8.76
2023-04-02T19:55:22.518Z,8.77
2023-04-02T19:57:51.396Z,8.80
2023-04-02T20:00:21.454Z,8.82
2023-04-02T20:02:49.461Z,8.81
2023-04-02T20:05:17.411Z,8.81
2023-04-02T20:07:45.435Z,8.82
2023-04-02T20:10:13.474Z,8.82
2023-04-02T20:12:41.474Z,8.80
2023-04-02T20:15:09.796Z,8.78
2023-04-02T20:17:37.789Z,8.78
2023-04-02T20:20:07.047Z,8.82
2023-04-02T20:22:34.945Z,8.87
2023-04-02T20:25:02.893Z,8.90
2023-04-02T20:27:31.270Z,8.92
2023-04-02T20:29:59.088Z,8.93
2023-04-02T20:32:27.092Z,8.94
2023-04-02T20:34:56.373Z,8.93
2023-04-02T20:37:24.391Z,8.91
2023-04-02T20:39:52.959Z,8.89
2023-04-02T20:42:21.210Z,8.87
2023-04-02T20:44:49.074Z,8.84
2023-04-02T20:47:17.492Z,8.83
2023-04-02T20:49:45.416Z,8.82
2023-04-02T20:52:13.278Z,8.81
2023-04-02T20:54:41.232Z,8.79
2023-04-02T20:57:09.087Z,8.78
2023-04-02T20:59:37.043Z,8.77
2023-04-02T21:02:04.905Z,8.77
2023-04-02T21:04:32.870Z,8.74
2023-04-02T21:07:00.947Z,8.70
2023-04-02T21:09:28.892Z,8.63
2023-04-02T21:11:56.777Z,8.58
2023-04-02T21:14:24.694Z,8.52
2023-04-02T21:16:52.655Z,8.48
2023-04-02T21:19:20.804Z,8.44
2023-04-02T21:21:48.771Z,8.41
2023-04-02T21:24:17.243Z,8.40
2023-04-02T21:26:46.639Z,8.40
2023-04-02T21:29:14.641Z,8.40
2023-04-02T21:31:43.283Z,8.37
2023-04-02T21:34:16.130Z,8.35
2023-04-02T21:36:47.206Z,8.34
2023-04-02T21:39:23.553Z,8.29
2023-04-02T21:41:53.350Z,8.30
2023-04-02T21:44:23.326Z,8.30
2023-04-02T21:46:53.591Z,8.26
2023-04-02T21:49:23.224Z,8.24
2023-04-02T21:51:51.826Z,8.25
2023-04-02T21:54:20.339Z,8.25
2023-04-02T21:56:49.154Z,8.22
2023-04-02T21:59:18.109Z,8.21
2023-04-02T22:01:48.680Z,8.18
2023-04-02T22:04:22.640Z,8.15
2023-04-02T22:06:51.025Z,8.13
2023-04-02T22:09:24.404Z,8.12
2023-04-02T22:11:55.590Z,8.09
2023-04-02T22:14:23.562Z,8.06
2023-04-02T22:16:52.340Z,8.05
2023-04-02T22:19:20.981Z,8.04
2023-04-02T22:21:49.142Z,8.01
2023-04-02T22:24:18.996Z,7.97
2023-04-02T22:26:47.229Z,7.97
2023-04-02T22:29:15.758Z,7.94
2023-04-02T22:31:43.882Z,7.90
2023-04-02T22:34:12.056Z,7.85
2023-04-02T22:36:40.071Z,7.83
2023-04-02T22:39:10.457Z,7.81
2023-04-02T22:41:38.659Z,7.78
2023-04-02T22:44:06.967Z,7.75
2023-04-02T22:46:35.169Z,7.74
2023-04-02T22:49:03.485Z,7.72
2023-04-02T22:51:31.611Z,7.72
2023-04-02T22:53:59.460Z,7.70
2023-04-02T22:56:31.882Z,7.67
2023-04-02T22:59:00.771Z,7.64
2023-04-02T23:01:32.064Z,7.59
2023-04-02T23:04:00.596Z,7.56
2023-04-02T23:06:28.682Z,7.53
2023-04-02T23:08:57.021Z,7.50
2023-04-02T23:11:27.467Z,7.47
2023-04-02T23:13:57.376Z,7.44
2023-04-02T23:16:27.763Z,7.41
2023-04-02T23:18:56.565Z,7.38
2023-04-02T23:21:26.268Z,7.33
2023-04-02T23:23:55.146Z,7.29
2023-04-02T23:26:27.207Z,7.26
2023-04-02T23:28:55.404Z,7.21
2023-04-02T23:31:24.471Z,7.15
2023-04-02T23:33:52.754Z,7.12
2023-04-02T23:36:31.184Z,7.08
2023-04-02T23:39:01.875Z,7.05
2023-04-02T23:41:31.093Z,7.02
2023-04-02T23:43:59.093Z,6.99
2023-04-02T23:46:28.155Z,6.96
2023-04-02T23:48:57.206Z,6.93
2023-04-02T23:51:26.689Z,6.90
2023-04-02T23:53:55.535Z,6.88
2023-04-02T23:56:24.119Z,6.87
2023-04-02T23:58:52.104Z,6.84
